Time;durP1;ratioP1;P1;durP2;ratioP2;P2;SDS_P1;SDS_P2;PMS_P1;PMS_P2;Temp;Humidity;BMP_temperature;BMP_pressure;BME280_temperature;BME280_humidity;BME280_pressure;Samples;Min_cycle;Max_cycle;Signal;HPM_P1;HPM_P2
2023/11/06 00:02:28;;;;;;;;;;;;;;;21.43;60.67;99763.31;7394801;19;1713;-41
2023/11/06 00:04:57;;;;;;;;;;;;;;;21.41;60.41;99794.88;7395081;19;1488;-41
2023/11/06 00:07:25;;;;;;;;;;;;;;;21.42;60.54;99821.59;7394143;19;1511;-41
2023/11/06 00:09:54;;;;;;;;;;;;;;;21.40;60.46;99810.16;7395233;19;1389;-41
2023/11/06 00:12:23;;;;;;;;;;;;;;;21.44;60.30;99790.00;7393338;19;1842;-41
2023/11/06 00:14:54;;;;;;;;;;;;;;;21.42;60.39;99802.75;7393891;19;1510;-41
2023/11/06 00:17:22;;;;;;;;;;;;;;;21.44;60.29;99791.88;7393088;19;1421;-41
2023/11/06 00:19:51;;;;;;;;;;;;;;;21.45;60.43;99813.22;7391927;19;1483;-41
2023/11/06 00:22:20;;;;;;;;;;;;;;;21.41;60.26;99814.53;7394603;19;1523;-41
2023/11/06 00:24:48;;;;;;;;;;;;;;;21.44;60.60;99827.66;7393350;19;1365;-42
2023/11/06 00:27:16;;;;;;;;;;;;;;;21.47;60.21;99825.63;7393125;19;1478;-41
2023/11/06 00:29:44;;;;;;;;;;;;;;;21.48;59.86;99846.97;7393635;19;1431;-41
2023/11/06 00:32:15;;;;;;;;;;;;;;;21.47;59.87;99837.25;7393811;19;1839;-41
2023/11/06 00:34:44;;;;;;;;;;;;;;;21.43;59.98;99842.13;7393538;19;1501;-45
2023/11/06 00:37:12;;;;;;;;;;;;;;;21.41;59.96;99865.66;7393007;19;1671;-45
2023/11/06 00:39:40;;;;;;;;;;;;;;;21.36;60.55;99865.31;7377432;19;1475;-45
2023/11/06 00:42:09;;;;;;;;;;;;;;;21.37;60.44;99863.50;7393013;19;1643;-45
2023/11/06 00:44:38;;;;;;;;;;;;;;;21.37;60.17;99867.00;7391453;19;1471;-45
2023/11/06 00:47:06;;;;;;;;;;;;;;;21.33;60.61;99875.56;7391997;19;1397;-45
2023/11/06 00:49:37;;;;;;;;;;;;;;;21.34;60.48;99874.56;7393238;19;1502;-45
2023/11/06 00:52:06;;;;;;;;;;;;;;;21.38;60.19;99876.75;7393192;19;1393;-45
2023/11/06 00:54:35;;;;;;;;;;;;;;;21.36;60.21;99883.31;7391851;19;1846;-45
2023/11/06 00:57:03;;;;;;;;;;;;;;;21.36;60.39;99881.47;7392713;19;1407;-45
2023/11/06 00:59:32;;;;;;;;;;;;;;;21.39;60.02;99875.75;7393798;19;1522;-45
2023/11/06 01:02:00;;;;;;;;;;;;;;;21.34;60.54;99872.72;7392442;19;1494;-45
2023/11/06 01:04:28;;;;;;;;;;;;;;;21.37;60.08;99890.38;7392174;19;1617;-44
2023/11/06 01:06:59;;;;;;;;;;;;;;;21.36;60.46;99897.59;7392155;19;1378;-45
2023/11/06 01:09:29;;;;;;;;;;;;;;;21.34;60.53;99890.72;7392318;19;1879;-44
2023/11/06 01:11:58;;;;;;;;;;;;;;;21.34;60.57;99883.47;7391998;19;1725;-45
2023/11/06 01:14:26;;;;;;;;;;;;;;;21.32;60.56;99896.25;7390289;19;1859;-45
2023/11/06 01:16:54;;;;;;;;;;;;;;;21.32;60.43;99903.50;7391576;19;1520;-45
2023/11/06 01:19:23;;;;;;;;;;;;;;;21.37;60.59;99915.41;7392614;19;1595;-45
2023/11/06 01:21:51;;;;;;;;;;;;;;;21.33;60.44;99903.34;7391702;19;1780;-45
2023/11/06 01:24:23;;;;;;;;;;;;;;;21.26;60.74;99894.25;7391942;19;1361;-45
2023/11/06 01:26:51;;;;;;;;;;;;;;;21.28;60.39;99891.41;7390241;19;1368;-45
2023/11/06 01:29:19;;;;;;;;;;;;;;;21.33;60.36;99910.53;7392168;19;1543;-45
2023/11/06 01:31:48;;;;;;;;;;;;;;;21.33;60.28;99914.09;7388752;19;1435;-45
2023/11/06 01:34:16;;;;;;;;;;;;;;;21.34;60.22;99907.69;7390067;19;1856;-45
2023/11/06 01:36:44;;;;;;;;;;;;;;;21.32;60.18;99925.00;7390661;19;1384;-44
2023/11/06 01:39:13;;;;;;;;;;;;;;;21.32;60.27;99919.63;7391086;19;1507;-45
2023/11/06 01:41:44;;;;;;;;;;;;;;;21.28;60.19;99913.75;7376671;19;1525;-45
2023/11/06 01:44:12;;;;;;;;;;;;;;;21.39;60.32;99912.56;7391767;19;1770;-45
2023/11/06 01:46:40;;;;;;;;;;;;;;;21.33;60.42;99913.22;7390423;19;1519;-45
2023/11/06 01:49:12;;;;;;;;;;;;;;;21.34;60.01;99917.59;7391174;19;1592;-45
2023/11/06 01:51:42;;;;;;;;;;;;;;;21.34;60.76;99909.53;7392010;19;1597;-44
2023/11/06 01:54:12;;;;;;;;;;;;;;;21.35;60.55;99913.91;7389833;19;1861;-45
2023/11/06 01:56:41;;;;;;;;;;;;;;;21.34;60.20;99917.59;7390797;19;1490;-45
2023/11/06 01:59:12;;;;;;;;;;;;;;;21.35;60.69;99925.50;7391246;19;1765;-45
2023/11/06 02:01:45;;;;;;;;;;;;;;;21.35;60.33;99922.00;7391507;19;1400;-45
2023/11/06 02:04:14;;;;;;;;;;;;;;;21.31;60.61;99921.50;7390431;19;1694;-45
2023/11/06 02:06:43;;;;;;;;;;;;;;;21.34;60.35;99921.13;7389830;19;1467;-45
2023/11/06 02:09:11;;;;;;;;;;;;;;;21.35;60.74;99919.31;7390438;19;1745;-41
2023/11/06 02:11:40;;;;;;;;;;;;;;;21.33;60.63;99938.28;7390308;19;1535;-45
2023/11/06 02:14:08;;;;;;;;;;;;;;;21.33;60.71;99926.66;7389253;19;1852;-44
2023/11/06 02:16:39;;;;;;;;;;;;;;;21.29;60.73;99923.50;7390806;19;1448;-45
2023/11/06 02:19:08;;;;;;;;;;;;;;;21.28;60.87;99929.88;7389915;19;1639;-41
2023/11/06 02:21:37;;;;;;;;;;;;;;;21.23;60.62;99935.78;7389903;19;1669;-41
2023/11/06 02:24:08;;;;;;;;;;;;;;;21.28;60.45;99929.06;7390388;19;1527;-42
2023/11/06 02:26:37;;;;;;;;;;;;;;;21.31;60.85;99937.63;7389849;19;1463;-41
2023/11/06 02:29:05;;;;;;;;;;;;;;;21.31;60.83;99924.19;7389755;19;1557;-41
2023/11/06 02:31:33;;;;;;;;;;;;;;;21.29;60.54;99938.78;7391010;19;1796;-41
2023/11/06 02:34:02;;;;;;;;;;;;;;;21.28;60.44;99934.44;7387328;19;1876;-41
2023/11/06 02:36:30;;;;;;;;;;;;;;;21.28;60.93;99927.19;7390104;19;1472;-44
2023/11/06 02:38:58;;;;;;;;;;;;;;;21.31;60.84;99939.44;7387606;19;1785;-45
2023/11/06 02:41:29;;;;;;;;;;;;;;;21.25;60.55;99946.38;7375421;19;1424;-45
2023/11/06 02:43:57;;;;;;;;;;;;;;;21.25;60.49;99951.75;7396052;19;1405;-45
2023/11/06 02:46:26;;;;;;;;;;;;;;;21.29;60.55;99945.03;7396615;19;1922;-45
2023/11/06 02:48:54;;;;;;;;;;;;;;;21.26;60.69;99958.78;7395635;19;1467;-45
2023/11/06 02:51:22;;;;;;;;;;;;;;;21.27;60.53;99960.50;7396245;19;1467;-45
2023/11/06 02:53:51;;;;;;;;;;;;;;;21.27;60.35;99955.13;7393317;19;1853;-45
2023/11/06 02:56:19;;;;;;;;;;;;;;;21.25;60.63;99970.56;7397290;19;1632;-45
2023/11/06 02:58:50;;;;;;;;;;;;;;;21.28;60.48;99964.00;7396139;19;1730;-45
2023/11/06 03:01:19;;;;;;;;;;;;;;;21.29;60.65;99974.59;7397201;19;1883;-41
2023/11/06 03:03:47;;;;;;;;;;;;;;;21.25;60.60;99971.41;7396757;19;1490;-41
2023/11/06 03:06:16;;;;;;;;;;;;;;;21.23;60.55;99972.59;7396397;19;1503;-41
2023/11/06 03:08:44;;;;;;;;;;;;;;;21.22;60.99;99974.41;7396158;19;1425;-41
2023/11/06 03:11:13;;;;;;;;;;;;;;;21.27;60.66;99982.00;7396103;19;1951;-45
2023/11/06 03:13:43;;;;;;;;;;;;;;;21.26;60.50;99981.13;7396305;19;1842;-45
2023/11/06 03:16:14;;;;;;;;;;;;;;;21.27;60.59;99987.38;7395671;19;1750;-45
2023/11/06 03:18:42;;;;;;;;;;;;;;;21.29;60.44;99996.13;7396679;19;1376;-41
2023/11/06 03:21:11;;;;;;;;;;;;;;;21.26;60.40;99989.22;7396406;19;1536;-45
2023/11/06 03:23:39;;;;;;;;;;;;;;;21.27;59.99;99992.75;7395230;19;1882;-41
2023/11/06 03:26:08;;;;;;;;;;;;;;;21.24;60.40;99993.91;7394460;19;1468;-61
2023/11/06 03:28:37;;;;;;;;;;;;;;;21.24;60.44;99993.91;7393926;19;1602;-41
2023/11/06 03:31:07;;;;;;;;;;;;;;;21.26;60.17;99999.13;7394820;19;1386;-41
2023/11/06 03:33:38;;;;;;;;;;;;;;;21.25;60.60;100008.22;7391394;19;1841;-41
2023/11/06 03:36:07;;;;;;;;;;;;;;;21.24;60.44;100012.72;7393082;19;1486;-41
2023/11/06 03:38:36;;;;;;;;;;;;;;;21.20;60.55;100024.00;7391340;19;1439;-41
2023/11/06 03:41:04;;;;;;;;;;;;;;;21.19;60.73;100027.72;7376109;19;1438;-41
2023/11/06 03:43:31;;;;;;;;;;;;;;;21.19;60.26;100022.34;7394818;19;1598;-41
2023/11/06 03:46:00;;;;;;;;;;;;;;;21.23;60.19;100029.06;7394592;19;1506;-41
2023/11/06 03:48:28;;;;;;;;;;;;;;;21.19;60.31;100023.19;7393748;19;1459;-41
2023/11/06 03:50:59;;;;;;;;;;;;;;;21.24;60.36;100019.97;7394237;19;1462;-41
2023/11/06 03:53:27;;;;;;;;;;;;;;;21.23;60.24;100029.91;7393377;19;1852;-45
2023/11/06 03:55:56;;;;;;;;;;;;;;;21.23;60.66;100024.50;7393750;19;1392;-41
2023/11/06 03:58:24;;;;;;;;;;;;;;;21.22;60.17;100032.75;7394823;19;1494;-41
2023/11/06 04:00:53;;;;;;;;;;;;;;;21.20;60.30;100027.53;7394383;19;1444;-44
2023/11/06 04:03:21;;;;;;;;;;;;;;;21.14;60.46;100024.69;7391642;19;1508;-45
2023/11/06 04:05:49;;;;;;;;;;;;;;;21.14;60.50;100030.88;7393567;19;1427;-44
2023/11/06 04:08:21;;;;;;;;;;;;;;;21.14;60.85;100036.25;7393551;19;1437;-45
2023/11/06 04:10:51;;;;;;;;;;;;;;;21.17;60.40;100033.25;7393474;19;1474;-44
2023/11/06 04:13:19;;;;;;;;;;;;;;;21.14;60.38;100036.25;7394950;19;1832;-44
2023/11/06 04:15:47;;;;;;;;;;;;;;;21.17;60.55;100064.66;7393974;19;1499;-44
2023/11/06 04:18:16;;;;;;;;;;;;;;;21.18;60.58;100042.16;7393185;19;1642;-44
2023/11/06 04:20:45;;;;;;;;;;;;;;;21.22;60.14;100054.25;7393926;19;1610;-44
2023/11/06 04:23:13;;;;;;;;;;;;;;;21.22;60.21;100062.31;7393766;19;1532;-44
2023/11/06 04:25:47;;;;;;;;;;;;;;;21.21;60.68;100074.09;7393897;19;1460;-41
2023/11/06 04:28:16;;;;;;;;;;;;;;;21.22;60.45;100076.59;7393508;19;1519;-41
2023/11/06 04:30:45;;;;;;;;;;;;;;;21.26;60.42;100082.50;7392490;19;1545;-41
2023/11/06 04:33:13;;;;;;;;;;;;;;;21.23;60.20;100066.72;7392583;19;1445;-41
2023/11/06 04:35:42;;;;;;;;;;;;;;;21.22;60.37;100081.97;7390602;19;1860;-41
2023/11/06 04:38:11;;;;;;;;;;;;;;;21.24;60.07;100092.56;7391755;19;1490;-41
2023/11/06 04:40:39;;;;;;;;;;;;;;;21.22;60.32;100086.53;7376279;19;1364;-45
2023/11/06 04:43:10;;;;;;;;;;;;;;;21.25;60.63;100096.97;7392070;19;1674;-45
2023/11/06 04:45:38;;;;;;;;;;;;;;;21.21;60.22;100101.81;7392534;19;1409;-45
2023/11/06 04:48:07;;;;;;;;;;;;;;;21.20;60.29;100104.66;7392269;19;1626;-44
2023/11/06 04:50:36;;;;;;;;;;;;;;;21.16;60.60;100098.78;7392807;19;1387;-45
2023/11/06 04:53:04;;;;;;;;;;;;;;;21.19;60.24;100105.69;7391577;19;1879;-44
2023/11/06 04:55:33;;;;;;;;;;;;;;;21.19;60.52;100105.69;7391300;19;1861;-45
2023/11/06 04:58:01;;;;;;;;;;;;;;;21.20;60.12;100118.94;7392882;19;1539;-45
2023/11/06 05:00:32;;;;;;;;;;;;;;;21.18;60.17;100114.75;7393240;19;1448;-45
2023/11/06 05:03:01;;;;;;;;;;;;;;;21.20;60.45;100118.13;7392588;19;1482;-44
2023/11/06 05:05:29;;;;;;;;;;;;;;;21.17;60.49;100131.88;7391937;19;1518;-45
2023/11/06 05:07:58;;;;;;;;;;;;;;;21.21;60.08;100138.63;7389335;19;2234;-46
2023/11/06 05:10:28;;;;;;;;;;;;;;;21.21;60.05;100160.16;7391760;19;1602;-46
2023/11/06 05:12:56;;;;;;;;;;;;;;;21.18;60.16;100155.91;7389690;19;1757;-45
2023/11/06 05:15:25;;;;;;;;;;;;;;;21.17;60.12;100161.44;7390157;19;1862;-45
2023/11/06 05:17:57;;;;;;;;;;;;;;;21.17;60.32;100183.81;7391460;19;1392;-45
2023/11/06 05:20:25;;;;;;;;;;;;;;;21.17;60.21;100177.59;7391917;19;1435;-45
2023/11/06 05:22:55;;;;;;;;;;;;;;;21.23;60.03;100185.03;7389582;19;1401;-45
2023/11/06 05:25:23;;;;;;;;;;;;;;;21.33;59.77;100191.09;7392654;19;1360;-45
2023/11/06 05:27:51;;;;;;;;;;;;;;;21.37;59.40;100197.81;7391140;19;1464;-51
2023/11/06 05:30:20;;;;;;;;;;;;;;;21.51;59.18;100203.59;7391763;19;1521;-44
2023/11/06 05:32:48;;;;;;;;;;;;;;;21.32;59.81;100210.91;7391628;19;1516;-45
2023/11/06 05:35:19;;;;;;;;;;;;;;;21.13;60.12;100211.19;7391137;19;1834;-45
2023/11/06 05:37:48;;;;;;;;;;;;;;;21.00;60.49;100233.16;7390602;19;1729;-45
2023/11/06 05:40:17;;;;;;;;;;;;;;;20.93;60.86;100232.97;7391266;19;1467;-45
2023/11/06 05:42:45;;;;;;;;;;;;;;;20.99;60.55;100245.75;7376506;19;1445;-44
2023/11/06 05:45:15;;;;;;;;;;;;;;;21.17;60.21;100234.91;7392130;19;1556;-44
2023/11/06 05:47:43;;;;;;;;;;;;;;;21.45;59.63;100243.59;7390728;19;1506;-44
2023/11/06 05:50:11;;;;;;;;;;;;;;;21.53;59.10;100256.22;7391492;19;1238;-44
2023/11/06 05:52:43;;;;;;;;;;;;;;;21.67;59.12;100264.69;7391615;19;1554;-41
2023/11/06 05:55:11;;;;;;;;;;;;;;;21.67;58.96;100267.38;7390587;19;1874;-41
2023/11/06 05:57:40;;;;;;;;;;;;;;;21.55;59.92;100278.44;7391608;19;1447;-41
2023/11/06 06:00:11;;;;;;;;;;;;;;;21.74;59.10;100279.13;7392266;19;1596;-45
2023/11/06 06:02:40;;;;;;;;;;;;;;;21.69;59.29;100281.50;7392913;19;1045;-45
2023/11/06 06:05:08;;;;;;;;;;;;;;;21.66;59.40;100285.34;7391912;19;1491;-44
2023/11/06 06:07:37;;;;;;;;;;;;;;;21.81;58.94;100289.06;7391201;19;1641;-45
2023/11/06 06:10:09;;;;;;;;;;;;;;;21.40;60.73;100299.69;7390818;19;1503;-45
2023/11/06 06:12:37;;;;;;;;;;;;;;;21.31;61.43;100306.06;7391143;19;1657;-45
2023/11/06 06:15:06;;;;;;;;;;;;;;;21.38;61.40;100317.00;7389824;19;1842;-45
2023/11/06 06:17:37;;;;;;;;;;;;;;;21.52;61.13;100300.25;7393349;19;1442;-44
2023/11/06 06:20:06;;;;;;;;;;;;;;;21.55;61.04;100293.75;7397860;19;1499;-45
2023/11/06 06:22:35;;;;;;;;;;;;;;;21.58;61.05;100306.84;7398340;19;1471;-46
2023/11/06 06:25:03;;;;;;;;;;;;;;;21.41;61.02;100322.06;7397039;19;1478;-41
2023/11/06 06:27:34;;;;;;;;;;;;;;;21.33;61.33;100325.56;7397778;19;1507;-41
2023/11/06 06:30:03;;;;;;;;;;;;;;;21.35;61.35;100336.16;7398307;19;1467;-41
2023/11/06 06:32:31;;;;;;;;;;;;;;;21.50;60.64;100321.09;7398939;19;1851;-45
2023/11/06 06:34:59;;;;;;;;;;;;;;;21.44;60.96;100345.97;7397311;19;1856;-46
2023/11/06 06:37:28;;;;;;;;;;;;;;;21.22;60.88;100348.19;7394751;19;1561;-46
2023/11/06 06:39:56;;;;;;;;;;;;;;;21.00;56.35;100354.13;7397696;19;1543;-47
2023/11/06 06:42:24;;;;;;;;;;;;;;;20.97;57.74;100355.28;7378248;19;1602;-46
2023/11/06 06:44:55;;;;;;;;;;;;;;;20.93;58.37;100367.38;7394008;19;1567;-44
2023/11/06 06:47:23;;;;;;;;;;;;;;;20.85;59.19;100364.63;7395710;19;1602;-40
2023/11/06 06:49:53;;;;;;;;;;;;;;;20.82;59.32;100373.00;7391642;19;1476;-41
2023/11/06 06:52:21;;;;;;;;;;;;;;;20.82;58.06;100381.06;7395822;19;1537;-44
2023/11/06 06:54:50;;;;;;;;;;;;;;;20.81;59.49;100384.72;7395998;19;1879;-45
2023/11/06 06:57:18;;;;;;;;;;;;;;;20.80;59.11;100383.88;7394035;19;1642;-45
2023/11/06 06:59:46;;;;;;;;;;;;;;;20.81;58.96;100390.09;7397379;19;1239;-44
2023/11/06 07:02:17;;;;;;;;;;;;;;;20.82;57.92;100392.63;7395033;19;1939;-44
2023/11/06 07:04:46;;;;;;;;;;;;;;;20.94;57.41;100403.97;7396088;19;1562;-45
2023/11/06 07:07:15;;;;;;;;;;;;;;;20.99;57.84;100408.88;7395600;19;1646;-44
2023/11/06 07:09:43;;;;;;;;;;;;;;;20.95;57.91;100418.25;7391078;19;1549;-45
2023/11/06 07:12:14;;;;;;;;;;;;;;;20.87;58.32;100413.69;7392406;19;1549;-45
2023/11/06 07:14:42;;;;;;;;;;;;;;;20.88;58.22;100411.84;7394743;19;1847;-40
2023/11/06 07:17:10;;;;;;;;;;;;;;;20.90;58.33;100417.91;7393761;19;1618;-45
2023/11/06 07:19:42;;;;;;;;;;;;;;;20.92;57.56;100423.97;7392266;19;1468;-41
2023/11/06 07:22:11;;;;;;;;;;;;;;;20.95;57.40;100427.19;7395061;19;1578;-40
2023/11/06 07:24:39;;;;;;;;;;;;;;;20.94;57.67;100422.78;7395010;19;1492;-40
2023/11/06 07:27:07;;;;;;;;;;;;;;;21.03;57.35;100421.03;7395440;19;1605;-45
2023/11/06 07:29:36;;;;;;;;;;;;;;;21.13;57.15;100428.97;7395801;19;1577;-44
2023/11/06 07:32:05;;;;;;;;;;;;;;;21.16;57.10;100464.44;7394989;19;1128;-45
2023/11/06 07:34:33;;;;;;;;;;;;;;;21.12;56.65;100438.03;7395026;19;1868;-43
2023/11/06 07:37:04;;;;;;;;;;;;;;;21.02;56.85;100440.84;7393539;19;1575;-43
2023/11/06 07:39:32;;;;;;;;;;;;;;;21.06;56.79;100436.81;7395420;19;1389;-43
2023/11/06 07:42:01;;;;;;;;;;;;;;;20.98;56.55;100434.09;7381461;19;1498;-41
2023/11/06 07:44:34;;;;;;;;;;;;;;;20.97;57.16;100444.00;7394207;19;1555;-41
2023/11/06 07:47:03;;;;;;;;;;;;;;;20.90;56.58;100426.81;7395961;19;1603;-45
2023/11/06 07:49:31;;;;;;;;;;;;;;;20.91;55.17;100450.00;7395179;19;1506;-41
2023/11/06 07:52:00;;;;;;;;;;;;;;;20.85;54.46;100450.63;7395739;19;1565;-40
2023/11/06 07:54:32;;;;;;;;;;;;;;;20.87;54.85;100451.31;7394401;19;1910;-41
2023/11/06 07:57:00;;;;;;;;;;;;;;;20.94;55.19;100448.84;7395133;19;1510;-41
2023/11/06 07:59:28;;;;;;;;;;;;;;;20.99;54.09;100444.69;7395210;19;1202;-39
2023/11/06 08:01:57;;;;;;;;;;;;;;;21.10;54.99;100448.13;7395160;19;1651;-39
2023/11/06 08:04:25;;;;;;;;;;;;;;;21.21;54.81;100443.31;7392100;19;1515;-39
2023/11/06 08:06:53;;;;;;;;;;;;;;;21.28;55.13;100446.22;7394035;19;1428;-39
2023/11/06 08:09:21;;;;;;;;;;;;;;;21.24;54.00;100460.97;7391330;19;1440;-41
2023/11/06 08:11:53;;;;;;;;;;;;;;;21.31;54.64;100464.75;7391718;19;1478;-39
2023/11/06 08:14:21;;;;;;;;;;;;;;;21.51;54.33;100467.25;7391336;19;1606;-39
2023/11/06 08:16:49;;;;;;;;;;;;;;;21.39;54.66;100464.78;7390008;19;1867;-39
2023/11/06 08:19:17;;;;;;;;;;;;;;;21.32;54.18;100471.78;7392079;19;1665;-39
2023/11/06 08:21:46;;;;;;;;;;;;;;;21.35;53.51;100460.72;7389847;19;1822;-39
2023/11/06 08:24:14;;;;;;;;;;;;;;;21.33;53.62;100473.50;7391357;19;1565;-39
2023/11/06 08:26:43;;;;;;;;;;;;;;;21.28;53.43;100473.13;7390920;19;1476;-41
2023/11/06 08:29:14;;;;;;;;;;;;;;;21.16;54.92;100475.22;7390672;19;1875;-39
2023/11/06 08:31:42;;;;;;;;;;;;;;;21.17;55.35;100486.81;7392542;19;1545;-39
2023/11/06 08:34:12;;;;;;;;;;;;;;;21.22;54.98;100500.63;7390901;19;1606;-40
2023/11/06 08:36:45;;;;;;;;;;;;;;;21.20;53.73;100502.63;7389436;19;1868;-39
2023/11/06 08:39:13;;;;;;;;;;;;;;;21.19;53.45;100509.03;7393131;19;1484;-39
2023/11/06 08:41:42;;;;;;;;;;;;;;;21.12;54.37;100494.50;7379216;19;1567;-39
2023/11/06 08:44:10;;;;;;;;;;;;;;;21.10;54.56;100501.88;7394852;19;1593;-44
2023/11/06 08:46:42;;;;;;;;;;;;;;;21.09;53.49;100494.81;7394981;19;1469;-60
2023/11/06 08:49:12;;;;;;;;;;;;;;;21.12;54.70;100499.88;7394170;19;1760;-47
2023/11/06 08:51:40;;;;;;;;;;;;;;;21.16;53.61;100501.25;7394706;19;1566;-39
2023/11/06 08:54:09;;;;;;;;;;;;;;;21.16;53.57;100494.03;7394429;19;1466;-39
2023/11/06 08:56:38;;;;;;;;;;;;;;;21.20;53.88;100502.63;7394506;19;1863;-46
2023/11/06 08:59:06;;;;;;;;;;;;;;;21.21;53.24;100504.34;7394920;19;1909;-52
2023/11/06 09:01:34;;;;;;;;;;;;;;;21.38;53.80;100489.97;7394137;19;1527;-49
2023/11/06 09:04:06;;;;;;;;;;;;;;;21.27;53.81;100503.72;7395306;19;1527;-45
2023/11/06 09:06:35;;;;;;;;;;;;;;;21.31;54.15;100499.72;7395006;19;1527;-47
2023/11/06 09:09:04;;;;;;;;;;;;;;;21.34;53.94;100504.75;7394531;19;1508;-40
2023/11/06 09:11:32;;;;;;;;;;;;;;;21.44;53.73;100502.84;7394435;19;1590;-40
2023/11/06 09:14:03;;;;;;;;;;;;;;;21.38;53.80;100489.16;7394415;19;1530;-40
2023/11/06 09:16:31;;;;;;;;;;;;;;;21.43;53.77;100509.22;7391961;19;1858;-40
2023/11/06 09:18:59;;;;;;;;;;;;;;;21.41;53.57;100511.19;7394270;19;1653;-40
2023/11/06 09:21:30;;;;;;;;;;;;;;;21.42;53.30;100493.22;7394143;19;1495;-39
2023/11/06 09:23:59;;;;;;;;;;;;;;;21.43;53.37;100503.00;7393793;19;1199;-41
2023/11/06 09:26:27;;;;;;;;;;;;;;;21.51;52.80;100510.31;7393597;19;1511;-39
2023/11/06 09:28:57;;;;;;;;;;;;;;;21.58;53.05;100511.34;7394043;19;1540;-39
2023/11/06 09:31:25;;;;;;;;;;;;;;;21.50;53.25;100511.28;7393864;19;1483;-39
2023/11/06 09:33:54;;;;;;;;;;;;;;;21.51;52.67;100515.69;7392256;19;1636;-39
2023/11/06 09:36:23;;;;;;;;;;;;;;;21.58;52.80;100520.25;7391058;19;1847;-39
2023/11/06 09:38:54;;;;;;;;;;;;;;;21.57;52.93;100515.03;7393445;19;1419;-40
2023/11/06 09:41:22;;;;;;;;;;;;;;;21.57;52.89;100512.34;7392800;19;1542;-40
2023/11/06 09:43:51;;;;;;;;;;;;;;;21.49;52.86;100507.75;7377125;19;2008;-41
2023/11/06 09:46:19;;;;;;;;;;;;;;;21.71;52.72;100508.22;7392841;19;1590;-40
2023/11/06 09:48:48;;;;;;;;;;;;;;;21.64;52.35;100521.47;7393314;19;1589;-41
2023/11/06 09:51:17;;;;;;;;;;;;;;;21.57;53.01;100515.03;7394072;19;1182;-40
2023/11/06 09:53:47;;;;;;;;;;;;;;;21.64;52.88;100511.53;7399659;19;1823;-40
2023/11/06 09:56:19;;;;;;;;;;;;;;;21.61;52.64;100516.41;7401785;19;1847;-39
2023/11/06 09:58:47;;;;;;;;;;;;;;;21.57;53.04;100518.56;7402044;19;1929;-40
2023/11/06 10:01:16;;;;;;;;;;;;;;;21.64;52.77;100511.53;7401807;19;1645;-40
2023/11/06 10:03:44;;;;;;;;;;;;;;;21.73;52.48;100519.69;7401172;19;1546;-39
2023/11/06 10:06:13;;;;;;;;;;;;;;;21.84;51.93;100525.63;7401185;19;1632;-39
2023/11/06 10:08:41;;;;;;;;;;;;;;;21.86;51.64;100517.38;7400777;19;1927;-40
2023/11/06 10:11:09;;;;;;;;;;;;;;;21.78;52.33;100523.56;7400986;19;1522;-39
2023/11/06 10:13:52;;;;;;;;;;;;;;;21.57;52.51;100515.88;7400877;19;1488;-40
2023/11/06 10:16:22;;;;;;;;;;;;;;;21.60;51.26;100525.47;7399514;19;1843;-40
2023/11/06 10:18:50;;;;;;;;;;;;;;;21.73;51.68;100525.91;7399678;19;1602;-39
2023/11/06 10:21:28;;;;;;;;;;;;;;;21.78;51.74;100518.19;7400325;19;1391;-40
2023/11/06 10:24:00;;;;;;;;;;;;;;;21.73;51.72;100528.59;7399643;19;1444;-40
2023/11/06 10:26:31;;;;;;;;;;;;;;;21.72;51.74;100521.50;7399596;19;1475;-40
2023/11/06 10:29:14;;;;;;;;;;;;;;;21.64;51.81;100540.31;7400157;19;1614;-39
2023/11/06 10:31:46;;;;;;;;;;;;;;;21.53;50.37;100530.66;7399479;19;1495;-40
2023/11/06 10:34:31;;;;;;;;;;;;;;;21.51;51.77;100526.44;7397712;19;1629;-40
2023/11/06 10:37:03;;;;;;;;;;;;;;;21.59;51.36;100527.31;7396686;19;1920;-40
2023/11/06 10:39:32;;;;;;;;;;;;;;;21.51;51.42;100537.22;7398898;19;1576;-40
2023/11/06 10:42:03;;;;;;;;;;;;;;;21.21;50.85;100494.41;7394016;19;1574;-39
2023/11/06 10:44:33;;;;;;;;;;;;;;;21.61;50.61;100546.00;7395338;19;1605;-39
2023/11/06 10:47:07;;;;;;;;;;;;;;;21.60;50.64;100536.25;7399327;19;1488;-39
2023/11/06 10:49:36;;;;;;;;;;;;;;;21.54;51.22;100535.03;7398234;19;1561;-39
2023/11/06 10:52:06;;;;;;;;;;;;;;;21.54;51.04;100542.25;7398830;19;1591;-39
2023/11/06 10:54:36;;;;;;;;;;;;;;;21.52;51.26;100547.78;7397868;19;1476;-42
2023/11/06 10:57:04;;;;;;;;;;;;;;;21.48;51.23;100532.13;7396192;19;1891;-40
2023/11/06 10:59:34;;;;;;;;;;;;;;;21.56;50.17;100546.47;7398690;19;1523;-40
2023/11/06 11:02:02;;;;;;;;;;;;;;;21.59;49.88;100537.25;7396664;19;1730;-39
2023/11/06 11:04:35;;;;;;;;;;;;;;;21.49;49.59;100534.66;7396377;19;1588;-40
2023/11/06 11:07:06;;;;;;;;;;;;;;;21.43;51.27;100549.59;7397782;19;1572;-39
2023/11/06 11:09:35;;;;;;;;;;;;;;;21.39;51.01;100542.78;7397712;19;1538;-40
2023/11/06 11:12:05;;;;;;;;;;;;;;;21.42;51.32;100545.16;7397414;19;1542;-40
2023/11/06 11:14:33;;;;;;;;;;;;;;;21.56;49.92;100546.47;7397533;19;1528;-39
2023/11/06 11:17:09;;;;;;;;;;;;;;;21.58;49.97;100549.84;7396580;19;1848;-39
2023/11/06 11:19:41;;;;;;;;;;;;;;;21.44;49.81;100548.56;7397294;19;1618;-39
2023/11/06 11:22:09;;;;;;;;;;;;;;;21.42;50.90;100542.47;7398206;19;1598;-40
2023/11/06 11:25:05;;;;;;;;;;;;;;;21.49;49.85;100539.19;7397797;19;1498;-39
2023/11/06 11:27:33;;;;;;;;;;;;;;;21.47;50.70;100538.50;7393026;19;1511;-39
2023/11/06 11:30:08;;;;;;;;;;;;;;;21.47;50.48;100551.94;7398335;19;1691;-39
2023/11/06 11:32:52;;;;;;;;;;;;;;;21.45;50.53;100555.66;7398264;19;1866;-39
2023/11/06 11:35:36;;;;;;;;;;;;;;;21.48;50.05;100559.03;7397616;19;1069;-40
2023/11/06 11:38:07;;;;;;;;;;;;;;;21.50;51.06;100583.94;7396347;19;1866;-39
2023/11/06 11:40:56;;;;;;;;;;;;;;;21.50;50.39;100562.41;7397759;19;1880;-40
2023/11/06 11:43:39;;;;;;;;;;;;;;;21.47;50.05;100560.00;7381949;19;1112;-39
2023/11/06 11:46:33;;;;;;;;;;;;;;;21.51;49.08;100564.94;7396161;19;1653;-39
2023/11/06 11:49:01;;;;;;;;;;;;;;;21.48;51.15;100572.47;7397105;19;1541;-39
2023/11/06 11:51:49;;;;;;;;;;;;;;;21.44;49.69;100556.63;7394467;19;1799;-39
2023/11/06 11:54:33;;;;;;;;;;;;;;;21.42;49.01;100553.22;7396314;19;1493;-39
2023/11/06 11:57:02;;;;;;;;;;;;;;;21.43;50.54;100573.78;7394940;19;1839;-40
2023/11/06 11:59:31;;;;;;;;;;;;;;;21.47;50.36;100573.47;7397339;19;1614;-39
2023/11/06 12:02:01;;;;;;;;;;;;;;;21.42;49.83;100565.84;7397378;19;1555;-39
2023/11/06 12:04:30;;;;;;;;;;;;;;;21.39;49.39;100568.88;7396573;19;1467;-39
2023/11/06 12:07:05;;;;;;;;;;;;;;;21.40;48.75;100567.84;7395829;19;1700;-39
2023/11/06 12:09:54;;;;;;;;;;;;;;;21.39;49.58;100593.06;7395538;19;1606;-39
2023/11/06 12:12:23;;;;;;;;;;;;;;;21.32;49.51;100576.69;7395693;19;1578;-39
2023/11/06 12:14:51;;;;;;;;;;;;;;;21.34;48.38;100592.69;7393093;19;1495;-39
2023/11/06 12:17:33;;;;;;;;;;;;;;;21.32;49.46;100595.50;7393893;19;1846;-39
2023/11/06 12:20:03;;;;;;;;;;;;;;;21.30;48.90;100589.44;7394767;19;1586;-39
2023/11/06 12:22:33;;;;;;;;;;;;;;;21.30;48.43;100592.13;7395525;19;1515;-39
2023/11/06 12:25:06;;;;;;;;;;;;;;;21.29;49.64;100594.97;7395718;19;1479;-40
2023/11/06 12:27:35;;;;;;;;;;;;;;;21.25;49.28;100605.22;7395321;19;1648;-39
2023/11/06 12:30:07;;;;;;;;;;;;;;;21.28;50.44;100606.75;7395329;19;1509;-40
2023/11/06 12:32:35;;;;;;;;;;;;;;;21.26;49.30;100626.56;7396882;19;1044;-40
2023/11/06 12:35:09;;;;;;;;;;;;;;;21.28;50.00;100628.25;7392550;19;1801;-39
2023/11/06 12:37:50;;;;;;;;;;;;;;;21.23;48.36;100626.03;7391668;19;1857;-39
2023/11/06 12:40:22;;;;;;;;;;;;;;;21.22;50.26;100624.34;7393401;19;1495;-39
2023/11/06 12:42:51;;;;;;;;;;;;;;;21.22;48.25;100625.19;7379888;19;1488;-39
2023/11/06 12:45:26;;;;;;;;;;;;;;;21.25;49.92;100630.25;7394050;19;1503;-39
2023/11/06 12:47:55;;;;;;;;;;;;;;;21.24;48.37;100630.41;7393473;19;1851;-39
2023/11/06 12:50:23;;;;;;;;;;;;;;;21.23;48.36;100626.03;7391984;19;2540;-39
2023/11/06 12:52:52;;;;;;;;;;;;;;;21.21;49.00;100634.25;7394194;19;1499;-39
2023/11/06 12:55:23;;;;;;;;;;;;;;;21.19;50.26;100640.81;7394691;19;1606;-39
2023/11/06 12:57:54;;;;;;;;;;;;;;;21.20;47.75;100637.09;7391999;19;1869;-40
2023/11/06 13:00:29;;;;;;;;;;;;;;;21.22;48.08;100640.47;7394932;19;1551;-40
2023/11/06 13:02:58;;;;;;;;;;;;;;;21.22;49.63;100635.09;7392206;19;1476;-40
2023/11/06 13:05:28;;;;;;;;;;;;;;;21.15;48.46;100634.88;7392995;19;1911;-40